Washington, DC (20577)

11:07 PM EDT on September 18, 2014 (GMT -0400)
Logan Circle | Change Station
CLOSE
Current Station
Personal Weather Station
Location: Washington, DC
Elevation: 108 ft
Nearby Weather Stations

Elev 108 ft 38.91 °N, 77.03 °W | Updated 3 seconds ago

Clear
Clear
64.6 °F
Feels Like 64.6 °F
N
0.9
Wind Variable Wind from NE
Gusts 2.0 mph

Today
High -- | Low -- °F
--% Chance of Precip.
Yesterday
High -- | Low -- °F
Precip. -- in
6:52 AM 7:11 PM
Waning Crescent, 22% visible
Pressure 30.10 in
Visibility 10.0 miles
Clouds Clear
Dew Point 58 °F
Humidity 78%
Rainfall 0.00 in
Snow Depth Not available.
UV 0 out of 12
Pollen 4.80 out of 12
Air Quality Not available.
Flu Activity Not available.
METAR KDCA 190252Z 04003KT 10SM CLR 20/16 A3010 RMK AO2 SLP192 T02000161 51020

More Conditions Fewer Conditions

Pressure 30.10 in
Visibility 10.0 miles
Clouds Clear
Dew Point 58 °F
Humidity 78%
Rainfall 0.00 in
Snow Depth Not available.
UV 0 out of 12
Pollen 4.80 out of 12
Air Quality Not available.
Flu Activity Not available.
METAR KDCA 190252Z 04003KT 10SM CLR 20/16 A3010 RMK AO2 SLP192 T02000161 51020

More Conditions Fewer Conditions

10-Day Weather Forecast

Almanac

Astronomy

Sep. 18, 2014 Rise Set
Actual Time 6:52 AM EDT 7:11 PM EDT
Civil Twilight 6:25 AM EDT 7:38 PM EDT
Nautical Twilight 5:54 AM EDT 8:09 PM EDT
Astronomical Twilight 5:22 AM EDT 8:41 PM EDT
Moon 1:44 AM EDT (9/18) 3:59 PM EDT (9/18)
Length of Visible Light 13h 12m
Length of Day
12h 19m
Tomorrow will be 2m 30s shorter.
Waning Crescent, 22% of the Moon is Illuminated
Today
Waning Crescent
Sep 24
New
Oct 1
First Quarter
Oct 8
Full
Oct 15
Last Quarter

Today's Extremes

State Highs State Lows

Community

WunderPhotos

Upload Photos

1,754,550 photos uploaded!

Nearby

Snow Depth

Station Depth Elevation
No new snow has been reported.

Earthquake Activity

City Distance Mag. Time & Date
No recent earthquake activity has been reported nearby.
Minimum magnitude displayed is 2.5.

Coastal Water Temperatures

Place Temperature
Washington, DC 75.0 °F
Baltimore, MD 77.0 °F
Solomons Island, MD 75.9 °F

Nearby Weather Stations